Terminal Aerodrome Forecast
Issued by NWS Mt. Holly, NJ

Home | Current Version | Previous Version | Text Only | Print | Product List | Glossary On
Versions: 1 2 3 4 5 6 7 8 9 10 11 12 13 14 15 16 17 18 19 20 21 22 23 24
565
FTUS41 KPHI 262337
TAFPHL
TAF
KPHL 262337Z 2700/2806 26010KT P6SM SCT250
     FM270400 VRB03KT P6SM SCT100 BKN250
     FM271000 VRB03KT P6SM -RA OVC060
     FM271200 06004KT P6SM -RA SCT015 OVC030
     FM271400 05006KT 4SM -RA BR OVC008
     FM272000 34006KT P6SM SCT010 OVC025
     FM280000 29005KT P6SM BKN050=

USA.gov is the U.S. government's official web portal to all federal, state and local government web resources and services.